Time;durP1;ratioP1;P1;durP2;ratioP2;P2;SDS_P1;SDS_P2;PMS_P1;PMS_P2;Temp;Humidity;BMP_temperature;BMP_pressure;BME280_temperature;BME280_humidity;BME280_pressure;Samples;Min_cycle;Max_cycle;Signal;HPM_P1;HPM_P2
2020/12/20 00:00:32;;;;;;;7.25;4.70;;;;;;;;;;4955474;28;20122;-70
2020/12/20 00:02:59;;;;;;;6.30;4.35;;;;;;;;;;4955568;28;20575;-66
2020/12/20 00:05:25;;;;;;;7.55;4.90;;;;;;;;;;4955773;28;20050;-69
2020/12/20 00:07:52;;;;;;;8.07;4.72;;;;;;;;;;4955798;28;20050;-63
2020/12/20 00:10:19;;;;;;;6.38;4.60;;;;;;;;;;4942592;28;20051;-66
2020/12/20 00:12:46;;;;;;;7.25;4.57;;;;;;;;;;4936683;28;20130;-69
2020/12/20 00:15:13;;;;;;;6.40;4.80;;;;;;;;;;4943539;28;20051;-68
2020/12/20 00:17:39;;;;;;;7.85;4.63;;;;;;;;;;4955453;28;20055;-66
2020/12/20 00:20:07;;;;;;;5.70;4.45;;;;;;;;;;4942836;29;20055;-66
2020/12/20 00:22:33;;;;;;;6.43;4.43;;;;;;;;;;4946804;28;20497;-70
2020/12/20 00:25:00;;;;;;;6.22;4.15;;;;;;;;;;4955083;28;20130;-71
2020/12/20 00:31:16;;;;;;;8.30;4.88;;;;;;;;;;4982390;23;21198;-69
2020/12/20 00:33:42;;;;;;;6.90;5.20;;;;;;;;;;4975053;28;20046;-64
2020/12/20 00:36:09;;;;;;;7.30;4.65;;;;;;;;;;4974494;28;20058;-69
2020/12/20 00:38:35;;;;;;;6.57;4.82;;;;;;;;;;4974200;28;20046;-67
2020/12/20 00:41:01;;;;;;;8.68;4.60;;;;;;;;;;4974670;28;20389;-70
2020/12/20 00:43:27;;;;;;;7.60;4.55;;;;;;;;;;4974659;28;20058;-69
2020/12/20 00:45:53;;;;;;;8.90;5.55;;;;;;;;;;4973386;28;20069;-68
2020/12/20 00:48:19;;;;;;;7.20;5.50;;;;;;;;;;4974948;28;20058;-67
2020/12/20 00:50:46;;;;;;;8.30;4.82;;;;;;;;;;4958432;28;20111;-64
2020/12/20 00:53:12;;;;;;;8.48;5.15;;;;;;;;;;4975511;28;20058;-69
2020/12/20 00:55:38;;;;;;;8.02;4.97;;;;;;;;;;4952014;28;20046;-65
2020/12/20 00:58:04;;;;;;;6.57;5.10;;;;;;;;;;4975153;28;20042;-64
2020/12/20 01:00:30;;;;;;;7.90;5.43;;;;;;;;;;4978443;28;20051;-66
2020/12/20 01:02:57;;;;;;;7.80;5.40;;;;;;;;;;4978104;28;20128;-68
2020/12/20 01:05:23;;;;;;;9.18;5.13;;;;;;;;;;4977849;28;20065;-67
2020/12/20 01:07:49;;;;;;;7.55;5.55;;;;;;;;;;4977435;28;20054;-66
2020/12/20 01:10:15;;;;;;;7.57;4.68;;;;;;;;;;4978519;28;20054;-67
2020/12/20 01:12:41;;;;;;;7.05;4.85;;;;;;;;;;4978067;28;20069;-70
2020/12/20 01:15:08;;;;;;;8.75;5.40;;;;;;;;;;4977702;28;20058;-67
2020/12/20 01:17:37;;;;;;;8.00;5.63;;;;;;;;;;4977724;28;20058;-72
2020/12/20 01:20:03;;;;;;;9.68;5.47;;;;;;;;;;4977615;28;20042;-67
2020/12/20 01:22:33;;;;;;;7.93;4.82;;;;;;;;;;4976917;28;20054;-64
2020/12/20 01:24:59;;;;;;;8.10;5.25;;;;;;;;;;4977775;28;20574;-71
2020/12/20 01:27:25;;;;;;;7.97;5.32;;;;;;;;;;4961594;28;20073;-70
2020/12/20 01:29:51;;;;;;;9.70;4.95;;;;;;;;;;4977400;28;20401;-73
2020/12/20 01:32:17;;;;;;;7.18;4.78;;;;;;;;;;4977796;28;20057;-71
2020/12/20 01:34:44;;;;;;;6.40;5.13;;;;;;;;;;4977576;28;20093;-67
2020/12/20 01:37:10;;;;;;;8.40;4.75;;;;;;;;;;4977200;28;20062;-69
2020/12/20 01:39:36;;;;;;;7.50;5.22;;;;;;;;;;4977333;28;20054;-70
2020/12/20 01:42:03;;;;;;;6.38;4.78;;;;;;;;;;4977522;28;20105;-71
2020/12/20 01:44:29;;;;;;;7.25;4.85;;;;;;;;;;4977877;28;20058;-68
2020/12/20 01:46:56;;;;;;;7.85;5.68;;;;;;;;;;4959510;28;20473;-66
2020/12/20 01:49:22;;;;;;;7.25;5.15;;;;;;;;;;4961679;28;20050;-71
2020/12/20 01:51:48;;;;;;;8.20;4.95;;;;;;;;;;4976776;28;20511;-71
2020/12/20 01:54:14;;;;;;;6.93;5.18;;;;;;;;;;4977593;28;20058;-65
2020/12/20 01:56:41;;;;;;;7.38;4.95;;;;;;;;;;4993620;28;20058;-69
2020/12/20 01:59:07;;;;;;;8.45;5.63;;;;;;;;;;4977360;28;20042;-67
2020/12/20 02:01:33;;;;;;;8.05;5.97;;;;;;;;;;4976936;28;20140;-70
2020/12/20 02:03:59;;;;;;;7.45;5.00;;;;;;;;;;4977025;28;20054;-67
2020/12/20 02:06:26;;;;;;;7.82;5.80;;;;;;;;;;4975165;28;20058;-70
2020/12/20 02:08:52;;;;;;;9.23;5.43;;;;;;;;;;4977023;28;20046;-69
2020/12/20 02:11:18;;;;;;;6.03;5.15;;;;;;;;;;4977441;28;20046;-70
2020/12/20 02:13:46;;;;;;;6.28;5.15;;;;;;;;;;4994240;28;20128;-66
2020/12/20 02:16:13;;;;;;;8.20;5.88;;;;;;;;;;4976054;28;20055;-73
2020/12/20 02:18:40;;;;;;;7.13;5.28;;;;;;;;;;4976586;28;20397;-65
2020/12/20 02:21:11;;;;;;;7.30;5.38;;;;;;;;;;4976918;28;20047;-66
2020/12/20 02:23:42;;;;;;;9.80;5.80;;;;;;;;;;4976536;28;20054;-71
2020/12/20 02:26:09;;;;;;;7.38;4.80;;;;;;;;;;4975865;28;20049;-69
2020/12/20 02:28:35;;;;;;;8.02;5.60;;;;;;;;;;4976774;28;20047;-72
2020/12/20 02:31:02;;;;;;;6.45;4.80;;;;;;;;;;4976391;28;20046;-69
2020/12/20 02:33:29;;;;;;;9.13;5.28;;;;;;;;;;4977376;28;20079;-73
2020/12/20 02:35:56;;;;;;;7.47;4.88;;;;;;;;;;4993636;28;20054;-68
2020/12/20 02:38:22;;;;;;;7.68;5.32;;;;;;;;;;4976801;28;20046;-65
2020/12/20 02:40:48;;;;;;;9.02;5.10;;;;;;;;;;4993382;28;20042;-68
2020/12/20 02:43:15;;;;;;;6.25;4.38;;;;;;;;;;4976575;28;20049;-68
2020/12/20 02:45:41;;;;;;;5.50;4.57;;;;;;;;;;4975915;28;20061;-70
2020/12/20 02:48:07;;;;;;;8.23;4.80;;;;;;;;;;4976478;28;20492;-69
2020/12/20 02:50:34;;;;;;;5.25;4.70;;;;;;;;;;4975854;28;20065;-65
2020/12/20 02:53:01;;;;;;;6.15;4.47;;;;;;;;;;4975980;28;20448;-68
2020/12/20 02:55:27;;;;;;;4.80;4.30;;;;;;;;;;4975500;28;20057;-66
2020/12/20 02:57:53;;;;;;;6.57;5.88;;;;;;;;;;4975953;28;20077;-70
2020/12/20 03:00:20;;;;;;;4.97;4.38;;;;;;;;;;4976022;28;20054;-69
2020/12/20 03:02:46;;;;;;;5.72;4.93;;;;;;;;;;4976145;28;20086;-69
2020/12/20 03:05:13;;;;;;;5.13;4.18;;;;;;;;;;4975281;28;20598;-64
2020/12/20 03:07:39;;;;;;;5.63;4.45;;;;;;;;;;4975805;28;20058;-70
2020/12/20 03:10:06;;;;;;;5.72;4.40;;;;;;;;;;4976055;28;20437;-65
2020/12/20 03:12:33;;;;;;;5.45;4.60;;;;;;;;;;4976289;28;20077;-65
2020/12/20 03:14:59;;;;;;;4.95;4.22;;;;;;;;;;4975172;28;20533;-68
2020/12/20 03:17:25;;;;;;;5.10;4.15;;;;;;;;;;4975209;28;20050;-66
2020/12/20 03:19:51;;;;;;;5.18;4.35;;;;;;;;;;4975876;28;20046;-65
2020/12/20 03:22:17;;;;;;;5.80;4.30;;;;;;;;;;4975821;28;20050;-67
2020/12/20 03:24:44;;;;;;;5.55;4.18;;;;;;;;;;4975146;28;20090;-67
2020/12/20 03:27:10;;;;;;;4.93;4.07;;;;;;;;;;4975206;28;20077;-66
2020/12/20 03:29:36;;;;;;;7.20;4.63;;;;;;;;;;4959734;28;20053;-68
2020/12/20 03:32:02;;;;;;;6.07;4.40;;;;;;;;;;4975598;28;20306;-63
2020/12/20 03:34:29;;;;;;;5.25;4.40;;;;;;;;;;4975596;28;20133;-71
2020/12/20 03:36:55;;;;;;;6.35;4.78;;;;;;;;;;4974478;28;20120;-68
2020/12/20 03:39:21;;;;;;;5.55;4.70;;;;;;;;;;4975674;28;20069;-68
2020/12/20 03:41:47;;;;;;;6.10;4.50;;;;;;;;;;4975445;28;20050;-70
2020/12/20 03:44:13;;;;;;;5.88;4.70;;;;;;;;;;4973523;28;20061;-70
2020/12/20 03:50:27;;;;;;;5.15;4.53;;;;;;;;;;5000074;23;20560;-69
2020/12/20 03:52:53;;;;;;;5.93;4.90;;;;;;;;;;4974942;28;20061;-67
2020/12/20 03:55:19;;;;;;;5.70;4.40;;;;;;;;;;4974344;28;20050;-70
2020/12/20 03:57:46;;;;;;;5.55;4.55;;;;;;;;;;4975104;28;20049;-66
2020/12/20 04:00:12;;;;;;;5.95;4.28;;;;;;;;;;4975241;28;20077;-70
2020/12/20 04:02:38;;;;;;;5.78;4.43;;;;;;;;;;4975184;28;20043;-67
2020/12/20 04:05:04;;;;;;;6.05;4.38;;;;;;;;;;4974572;28;20044;-67
2020/12/20 04:07:30;;;;;;;6.75;5.05;;;;;;;;;;4974675;28;20068;-67
2020/12/20 04:09:57;;;;;;;7.03;4.72;;;;;;;;;;4992110;28;20046;-70
2020/12/20 04:12:23;;;;;;;6.53;4.35;;;;;;;;;;4959443;28;20046;-67
2020/12/20 04:14:49;;;;;;;8.05;4.35;;;;;;;;;;4973995;28;20043;-67
2020/12/20 04:17:15;;;;;;;7.85;4.32;;;;;;;;;;4991778;28;20109;-66
2020/12/20 04:19:42;;;;;;;7.40;4.28;;;;;;;;;;4974733;28;20050;-70
2020/12/20 04:22:08;;;;;;;5.82;4.60;;;;;;;;;;4975118;28;20061;-71
2020/12/20 04:24:34;;;;;;;6.35;4.38;;;;;;;;;;4974329;28;20050;-69
2020/12/20 04:27:00;;;;;;;5.35;4.43;;;;;;;;;;4974304;28;20400;-69
2020/12/20 04:29:26;;;;;;;6.55;4.72;;;;;;;;;;4974107;28;20050;-65
2020/12/20 04:31:53;;;;;;;8.30;4.93;;;;;;;;;;4974686;28;20043;-70
2020/12/20 04:34:19;;;;;;;6.72;4.50;;;;;;;;;;4974527;28;20412;-66
2020/12/20 04:36:45;;;;;;;8.88;4.50;;;;;;;;;;4973918;28;20050;-69
2020/12/20 04:39:11;;;;;;;6.10;4.55;;;;;;;;;;4974351;28;20042;-68
2020/12/20 04:41:37;;;;;;;4.95;4.13;;;;;;;;;;4974516;28;20516;-71
2020/12/20 04:44:03;;;;;;;7.93;5.10;;;;;;;;;;4974665;28;20062;-66
2020/12/20 04:46:30;;;;;;;6.38;4.50;;;;;;;;;;4973942;28;20444;-67
2020/12/20 04:48:56;;;;;;;6.07;4.68;;;;;;;;;;4974645;28;20062;-70
2020/12/20 04:51:22;;;;;;;5.63;4.68;;;;;;;;;;4973855;28;20046;-63
2020/12/20 04:53:48;;;;;;;6.85;4.53;;;;;;;;;;4931068;28;20057;-67
2020/12/20 04:56:14;;;;;;;7.78;4.40;;;;;;;;;;4933544;28;20054;-66
2020/12/20 04:58:41;;;;;;;5.20;4.53;;;;;;;;;;4974205;28;20062;-67
2020/12/20 05:01:08;;;;;;;5.78;4.10;;;;;;;;;;4975220;28;20043;-69
2020/12/20 05:03:34;;;;;;;5.75;4.30;;;;;;;;;;4975106;28;20061;-65
2020/12/20 05:06:01;;;;;;;6.45;4.93;;;;;;;;;;4974519;28;20046;-64
2020/12/20 05:08:27;;;;;;;6.38;4.45;;;;;;;;;;4974532;28;20053;-66
2020/12/20 05:10:54;;;;;;;5.78;4.57;;;;;;;;;;4974403;28;20054;-65
2020/12/20 05:13:20;;;;;;;6.20;4.25;;;;;;;;;;4974370;28;20133;-70
2020/12/20 05:15:47;;;;;;;5.32;4.50;;;;;;;;;;4973422;28;20090;-66
2020/12/20 05:18:14;;;;;;;4.93;3.92;;;;;;;;;;4974118;28;20054;-68
2020/12/20 05:20:48;;;;;;;5.82;4.57;;;;;;;;;;4974072;28;20139;-68
2020/12/20 05:23:16;;;;;;;5.47;4.30;;;;;;;;;;4974184;28;20066;-69
2020/12/20 05:25:43;;;;;;;6.63;4.50;;;;;;;;;;4973224;28;20128;-69
2020/12/20 05:28:23;;;;;;;6.57;4.28;;;;;;;;;;4974449;28;20050;-66
2020/12/20 05:30:50;;;;;;;5.72;4.55;;;;;;;;;;4974260;28;20490;-69
2020/12/20 05:33:27;;;;;;;5.28;4.43;;;;;;;;;;4976770;28;20516;-62
2020/12/20 05:35:58;;;;;;;6.03;4.32;;;;;;;;;;4986110;28;20051;-62
2020/12/20 05:38:24;;;;;;;4.35;3.85;;;;;;;;;;4984001;28;20053;-62
2020/12/20 05:40:50;;;;;;;5.57;4.25;;;;;;;;;;4988865;28;20057;-64
2020/12/20 05:43:16;;;;;;;5.88;4.47;;;;;;;;;;4981785;28;20058;-65
2020/12/20 05:45:42;;;;;;;7.13;4.50;;;;;;;;;;4944603;28;20043;-69
2020/12/20 05:48:16;;;;;;;8.38;4.95;;;;;;;;;;4945467;28;20049;-71
2020/12/20 05:51:09;;;;;;;7.28;4.55;;;;;;;;;;4977197;28;20504;-65
2020/12/20 05:53:35;;;;;;;6.97;4.45;;;;;;;;;;4973422;28;20404;-71
2020/12/20 05:56:04;;;;;;;6.25;4.20;;;;;;;;;;4976605;28;20137;-64
2020/12/20 05:58:31;;;;;;;4.63;3.92;;;;;;;;;;4976718;28;20046;-66
2020/12/20 06:00:58;;;;;;;5.68;4.50;;;;;;;;;;4976387;28;20053;-69
2020/12/20 06:03:24;;;;;;;7.38;4.65;;;;;;;;;;4977110;28;20508;-70
2020/12/20 06:05:51;;;;;;;7.68;4.57;;;;;;;;;;4976345;28;20054;-69
2020/12/20 06:08:19;;;;;;;5.13;4.25;;;;;;;;;;4976285;28;20065;-65
2020/12/20 06:10:48;;;;;;;6.97;4.63;;;;;;;;;;4975233;28;20050;-73
2020/12/20 06:13:19;;;;;;;6.68;4.45;;;;;;;;;;4977303;28;20058;-64
2020/12/20 06:15:51;;;;;;;6.22;4.68;;;;;;;;;;4976185;28;20507;-66
2020/12/20 06:18:28;;;;;;;4.63;4.03;;;;;;;;;;4976912;28;20054;-67
2020/12/20 06:20:56;;;;;;;6.35;4.43;;;;;;;;;;4977086;28;20105;-67
2020/12/20 06:23:27;;;;;;;4.80;4.15;;;;;;;;;;4976283;28;20062;-65
2020/12/20 06:25:54;;;;;;;4.63;4.15;;;;;;;;;;4972336;28;20051;-68
2020/12/20 06:28:25;;;;;;;6.05;4.05;;;;;;;;;;4988884;28;20054;-69
2020/12/20 06:30:52;;;;;;;7.53;4.68;;;;;;;;;;4972895;28;20058;-66
2020/12/20 06:33:37;;;;;;;5.53;4.38;;;;;;;;;;4976998;28;20057;-68
2020/12/20 06:36:10;;;;;;;6.32;4.85;;;;;;;;;;4947637;28;20043;-64
2020/12/20 06:38:38;;;;;;;6.07;5.00;;;;;;;;;;4962733;28;20046;-67
2020/12/20 06:41:04;;;;;;;8.27;4.97;;;;;;;;;;4976176;28;20393;-63
2020/12/20 06:43:35;;;;;;;5.45;4.40;;;;;;;;;;4976565;28;20061;-67
2020/12/20 06:46:02;;;;;;;6.60;4.20;;;;;;;;;;4975950;28;20058;-69
2020/12/20 06:48:34;;;;;;;6.55;4.82;;;;;;;;;;4976353;28;20444;-69
2020/12/20 06:51:02;;;;;;;5.30;3.78;;;;;;;;;;4974669;28;20050;-69
2020/12/20 06:54:01;;;;;;;6.07;4.93;;;;;;;;;;4992955;28;20042;-68
2020/12/20 06:56:27;;;;;;;5.13;4.00;;;;;;;;;;4945415;28;20046;-71
2020/12/20 06:58:54;;;;;;;4.53;3.60;;;;;;;;;;4975278;28;20049;-69
2020/12/20 07:01:35;;;;;;;5.57;4.18;;;;;;;;;;4976159;28;20480;-66
2020/12/20 07:04:01;;;;;;;5.82;4.00;;;;;;;;;;4982539;28;20050;-65
2020/12/20 07:06:32;;;;;;;5.82;4.07;;;;;;;;;;4803608;28;73083;-65
2020/12/20 07:09:05;;;;;;;5.50;4.18;;;;;;;;;;4949147;28;20061;-65
2020/12/20 07:11:32;;;;;;;6.65;4.35;;;;;;;;;;4954335;28;20046;-66
2020/12/20 07:13:58;;;;;;;6.18;4.72;;;;;;;;;;4956759;28;20047;-70
2020/12/20 07:16:38;;;;;;;5.85;4.55;;;;;;;;;;4956397;28;20050;-67
2020/12/20 07:22:45;;;;;;;8.02;4.47;;;;;;;;;;4980358;23;20101;-68
2020/12/20 07:25:11;;;;;;;6.90;5.45;;;;;;;;;;4955955;28;20042;-69
2020/12/20 07:27:37;;;;;;;9.30;5.35;;;;;;;;;;4973679;28;20105;-65
2020/12/20 07:30:04;;;;;;;6.72;5.30;;;;;;;;;;4973195;28;20047;-66
2020/12/20 07:51:24;;;;;;;8.88;5.60;;;;;;;;;;4975029;23;21327;-66
2020/12/20 07:53:51;;;;;;;8.13;5.40;;;;;;;;;;4938118;29;20043;-63
2020/12/20 07:56:31;;;;;;;7.03;4.60;;;;;;;;;;4937264;29;20047;-65
2020/12/20 07:58:59;;;;;;;5.85;4.50;;;;;;;;;;4938471;29;20058;-65
2020/12/20 08:01:25;;;;;;;7.68;4.25;;;;;;;;;;4936972;29;20056;-67
2020/12/20 08:04:09;;;;;;;6.47;4.43;;;;;;;;;;4938055;28;20110;-65
2020/12/20 08:06:35;;;;;;;;;;;;;;;;;;4941091;29;20048;-68
2020/12/20 08:09:07;;;;;;;5.65;4.40;;;;;;;;;;4935658;29;19926;-67
2020/12/20 08:11:34;;;;;;;4.45;3.75;;;;;;;;;;4938649;29;20134;-67
2020/12/20 08:14:08;;;;;;;5.25;4.50;;;;;;;;;;4939004;29;20083;-68
2020/12/20 08:16:39;;;;;;;6.00;4.40;;;;;;;;;;4939305;29;20047;-65
2020/12/20 08:19:06;;;;;;;6.40;4.82;;;;;;;;;;4940770;29;20083;-65
2020/12/20 08:21:35;;;;;;;7.00;4.40;;;;;;;;;;4931916;29;20051;-64
2020/12/20 08:24:04;;;;;;;5.53;4.38;;;;;;;;;;4938259;29;20043;-65
2020/12/20 08:26:33;;;;;;;6.65;4.68;;;;;;;;;;4935793;29;20099;-64
2020/12/20 08:29:01;;;;;;;5.38;4.28;;;;;;;;;;4925521;29;20079;-66
2020/12/20 08:31:41;;;;;;;6.78;4.10;;;;;;;;;;4931589;29;20047;-69
2020/12/20 08:34:23;;;;;;;5.28;4.32;;;;;;;;;;4930400;29;20047;-67
2020/12/20 08:36:53;;;;;;;5.25;4.40;;;;;;;;;;4930472;29;20110;-66
2020/12/20 08:39:23;;;;;;;6.22;4.50;;;;;;;;;;4932261;29;20098;-66
2020/12/20 08:42:10;;;;;;;5.68;4.30;;;;;;;;;;4933437;29;20047;-66
2020/12/20 08:44:37;;;;;;;4.55;3.55;;;;;;;;;;4933754;29;20055;-66
2020/12/20 08:47:08;;;;;;;5.55;4.13;;;;;;;;;;4932388;29;20043;-67
2020/12/20 08:49:34;;;;;;;7.65;5.28;;;;;;;;;;4931136;29;20487;-66
2020/12/20 08:52:08;;;;;;;9.30;6.18;;;;;;;;;;4927295;29;20083;-66
2020/12/20 08:54:35;;;;;;;5.82;4.30;;;;;;;;;;4940614;29;20044;-65
2020/12/20 08:57:10;;;;;;;5.95;4.78;;;;;;;;;;4939210;29;20048;-67
2020/12/20 08:59:38;;;;;;;5.10;4.40;;;;;;;;;;4940026;29;20048;-66
2020/12/20 09:02:06;;;;;;;9.70;5.18;;;;;;;;;;4943769;29;20079;-71
2020/12/20 09:04:36;;;;;;;5.22;4.07;;;;;;;;;;4942150;29;20056;-68
2020/12/20 09:07:12;;;;;;;5.90;4.30;;;;;;;;;;4937189;29;20098;-69
2020/12/20 09:09:39;;;;;;;6.82;5.22;;;;;;;;;;4940086;29;20094;-66
2020/12/20 09:12:19;;;;;;;8.23;5.32;;;;;;;;;;4939515;29;20114;-71
2020/12/20 09:14:59;;;;;;;8.43;6.07;;;;;;;;;;4939137;28;20103;-66
2020/12/20 09:17:30;;;;;;;7.97;5.18;;;;;;;;;;4942471;29;20123;-68
2020/12/20 09:19:57;;;;;;;6.93;4.97;;;;;;;;;;4948152;29;20054;-69
2020/12/20 09:22:43;;;;;;;6.20;4.85;;;;;;;;;;4953448;29;20048;-63
2020/12/20 09:25:10;;;;;;;5.90;4.75;;;;;;;;;;4954375;29;20177;-63
2020/12/20 09:27:36;;;;;;;6.05;4.68;;;;;;;;;;4954619;29;20513;-67
2020/12/20 09:30:06;;;;;;;6.47;4.85;;;;;;;;;;4943582;29;20051;-69
2020/12/20 09:32:37;;;;;;;7.35;5.13;;;;;;;;;;4945985;29;20048;-66
2020/12/20 09:35:07;;;;;;;6.45;4.80;;;;;;;;;;4942815;29;20075;-67
2020/12/20 09:37:42;;;;;;;6.78;4.63;;;;;;;;;;4942903;29;20039;-69
2020/12/20 09:40:09;;;;;;;5.68;4.60;;;;;;;;;;4942290;29;20071;-64
2020/12/20 09:42:42;;;;;;;5.57;4.80;;;;;;;;;;4935459;29;20438;-68
2020/12/20 09:45:11;;;;;;;;;;;;;;;;;;4942306;29;20044;-70
2020/12/20 09:47:42;;;;;;;6.35;5.15;;;;;;;;;;4939658;29;19958;-65
2020/12/20 09:50:09;;;;;;;9.10;5.30;;;;;;;;;;4943847;29;20047;-67
2020/12/20 09:52:36;;;;;;;9.25;6.25;;;;;;;;;;4937894;29;20079;-70
2020/12/20 09:55:04;;;;;;;6.65;5.43;;;;;;;;;;4943419;29;20047;-69
2020/12/20 10:27:46;;;;;;;7.03;5.65;;;;;;;;;;4971344;23;20511;-67
2020/12/20 10:30:13;;;;;;;8.50;6.38;;;;;;;;;;4930969;29;20055;-66
2020/12/20 10:32:41;;;;;;;8.02;5.43;;;;;;;;;;4942120;29;20047;-68
2020/12/20 10:35:07;;;;;;;7.43;5.80;;;;;;;;;;4941853;29;20051;-70
2020/12/20 10:37:33;;;;;;;8.70;6.13;;;;;;;;;;4934043;29;20525;-70
2020/12/20 10:39:59;;;;;;;10.07;6.45;;;;;;;;;;4940965;29;20756;-70
2020/12/20 10:42:26;;;;;;;9.63;6.68;;;;;;;;;;4942162;29;20059;-67
2020/12/20 10:44:53;;;;;;;8.05;5.50;;;;;;;;;;4933844;29;20051;-66
2020/12/20 10:47:21;;;;;;;7.65;5.95;;;;;;;;;;4934746;29;20052;-70
2020/12/20 10:49:48;;;;;;;8.05;6.03;;;;;;;;;;4939676;29;20051;-69
2020/12/20 10:52:14;;;;;;;8.20;6.10;;;;;;;;;;4923429;29;20523;-70
2020/12/20 10:54:40;;;;;;;8.18;6.65;;;;;;;;;;4941748;29;20546;-70
2020/12/20 10:57:06;;;;;;;7.40;5.93;;;;;;;;;;4938242;29;20043;-67
2020/12/20 10:59:32;;;;;;;7.28;5.95;;;;;;;;;;4931957;29;20486;-72
2020/12/20 11:01:59;;;;;;;7.93;6.43;;;;;;;;;;4931744;29;20118;-71
2020/12/20 11:04:25;;;;;;;10.35;7.65;;;;;;;;;;4917286;29;20410;-72
2020/12/20 11:06:58;;;;;;;7.50;5.57;;;;;;;;;;4933628;29;20047;-69
2020/12/20 11:09:25;;;;;;;8.27;5.95;;;;;;;;;;4932045;29;20052;-70
2020/12/20 11:11:52;;;;;;;8.57;6.25;;;;;;;;;;4941850;29;20058;-62
2020/12/20 11:14:20;;;;;;;8.23;6.50;;;;;;;;;;4933352;29;20055;-67
2020/12/20 11:16:49;;;;;;;8.68;6.07;;;;;;;;;;4930278;29;20058;-69
2020/12/20 11:19:15;;;;;;;7.43;5.82;;;;;;;;;;4938806;29;20171;-66
2020/12/20 11:21:46;;;;;;;7.75;6.00;;;;;;;;;;4938909;29;20047;-67
2020/12/20 11:24:12;;;;;;;8.18;6.45;;;;;;;;;;4934125;29;20071;-66
2020/12/20 11:26:44;;;;;;;8.57;6.40;;;;;;;;;;4939495;29;20514;-65
2020/12/20 11:29:11;;;;;;;9.30;6.65;;;;;;;;;;4928517;29;20059;-64
2020/12/20 11:31:38;;;;;;;8.88;6.40;;;;;;;;;;4910375;29;20323;-68
2020/12/20 11:34:06;;;;;;;6.65;5.40;;;;;;;;;;4942077;29;20056;-63
2020/12/20 11:36:32;;;;;;;6.75;5.88;;;;;;;;;;4925818;29;20063;-68
2020/12/20 11:38:59;;;;;;;8.18;5.90;;;;;;;;;;4925629;29;20052;-67
2020/12/20 11:41:27;;;;;;;7.75;5.97;;;;;;;;;;4927137;29;20051;-70
2020/12/20 11:43:54;;;;;;;9.85;6.38;;;;;;;;;;4926884;29;20055;-63
2020/12/20 11:46:21;;;;;;;7.63;6.32;;;;;;;;;;4927382;29;20055;-65
2020/12/20 11:48:47;;;;;;;8.38;6.28;;;;;;;;;;4926882;29;20067;-65
2020/12/20 11:51:14;;;;;;;6.30;5.70;;;;;;;;;;4927856;29;20052;-62
2020/12/20 11:53:41;;;;;;;6.90;5.97;;;;;;;;;;4926928;29;20054;-62
2020/12/20 11:56:14;;;;;;;8.77;6.18;;;;;;;;;;4927025;29;20056;-70
2020/12/20 11:58:42;;;;;;;9.80;6.22;;;;;;;;;;4929170;29;20055;-68
2020/12/20 12:01:09;;;;;;;9.05;6.40;;;;;;;;;;4929489;29;20115;-69
2020/12/20 12:03:36;;;;;;;9.75;7.05;;;;;;;;;;4928568;29;20777;-70
2020/12/20 12:06:03;;;;;;;10.70;6.30;;;;;;;;;;4928532;29;20056;-73
2020/12/20 12:08:29;;;;;;;8.55;5.95;;;;;;;;;;4929414;29;20071;-69
2020/12/20 12:10:56;;;;;;;7.40;6.50;;;;;;;;;;4928934;29;20051;-65
2020/12/20 12:13:22;;;;;;;8.10;6.20;;;;;;;;;;4928784;29;20060;-62
2020/12/20 12:15:48;;;;;;;12.65;6.22;;;;;;;;;;4928369;29;20127;-70
2020/12/20 12:18:14;;;;;;;9.65;7.22;;;;;;;;;;4929416;29;20074;-66
2020/12/20 12:20:41;;;;;;;8.98;6.13;;;;;;;;;;4928846;29;20052;-68
2020/12/20 12:23:07;;;;;;;8.98;6.15;;;;;;;;;;4929068;29;20060;-65
2020/12/20 12:25:34;;;;;;;8.40;5.95;;;;;;;;;;4922282;29;20052;-70
2020/12/20 12:28:00;;;;;;;8.40;6.30;;;;;;;;;;4924368;29;20059;-62
2020/12/20 12:30:27;;;;;;;8.35;6.55;;;;;;;;;;4927044;29;20051;-65
2020/12/20 12:32:54;;;;;;;8.63;6.75;;;;;;;;;;4924623;29;20056;-70
2020/12/20 12:35:22;;;;;;;8.18;5.63;;;;;;;;;;4927449;29;20143;-69
2020/12/20 12:37:50;;;;;;;7.20;5.57;;;;;;;;;;4927661;29;20519;-66
2020/12/20 12:40:21;;;;;;;9.93;7.32;;;;;;;;;;4926393;29;20055;-68
2020/12/20 12:42:47;;;;;;;15.95;8.90;;;;;;;;;;4927319;29;20087;-64
2020/12/20 12:45:14;;;;;;;14.52;10.20;;;;;;;;;;4926403;29;20056;-64
2020/12/20 12:47:42;;;;;;;15.13;9.43;;;;;;;;;;4924213;29;20525;-65
2020/12/20 12:50:08;;;;;;;16.20;10.60;;;;;;;;;;4945413;28;20048;-65
2020/12/20 12:52:35;;;;;;;14.18;10.18;;;;;;;;;;4931129;29;20088;-64
2020/12/20 12:55:01;;;;;;;17.27;11.32;;;;;;;;;;4933037;29;20058;-62
2020/12/20 12:57:27;;;;;;;20.02;11.27;;;;;;;;;;4914660;29;20160;-64
2020/12/20 12:59:57;;;;;;;13.82;9.80;;;;;;;;;;4929979;29;20407;-65
2020/12/20 13:02:24;;;;;;;16.33;10.23;;;;;;;;;;4916532;29;20052;-65
2020/12/20 13:04:51;;;;;;;13.38;10.30;;;;;;;;;;4920692;29;20052;-63
2020/12/20 13:07:18;;;;;;;15.20;10.00;;;;;;;;;;4922176;29;20158;-65
2020/12/20 13:09:45;;;;;;;11.57;8.63;;;;;;;;;;4929279;29;20067;-63
2020/12/20 13:12:14;;;;;;;12.50;9.10;;;;;;;;;;4930526;29;20052;-65
2020/12/20 13:14:41;;;;;;;16.45;10.40;;;;;;;;;;4946231;29;20048;-63
2020/12/20 13:17:11;;;;;;;13.65;10.02;;;;;;;;;;4921022;29;20397;-66
2020/12/20 13:19:37;;;;;;;10.88;8.30;;;;;;;;;;4930790;29;20056;-64
2020/12/20 13:22:03;;;;;;;9.23;7.30;;;;;;;;;;4917547;29;20479;-64
2020/12/20 13:24:30;;;;;;;8.82;6.47;;;;;;;;;;4947454;29;20056;-63
2020/12/20 13:27:08;;;;;;;8.95;7.20;;;;;;;;;;4927430;29;20127;-65
2020/12/20 13:29:34;;;;;;;11.23;7.55;;;;;;;;;;4945319;29;20052;-63
2020/12/20 13:32:00;;;;;;;9.77;7.78;;;;;;;;;;4930303;29;20142;-64
2020/12/20 13:34:28;;;;;;;10.00;7.45;;;;;;;;;;4930234;29;20150;-66
2020/12/20 13:36:55;;;;;;;10.27;7.45;;;;;;;;;;4929763;29;20120;-63
2020/12/20 13:39:22;;;;;;;11.38;7.93;;;;;;;;;;4946156;29;20107;-65
2020/12/20 13:41:51;;;;;;;11.25;6.88;;;;;;;;;;4945242;29;20052;-66
2020/12/20 13:44:18;;;;;;;8.30;7.18;;;;;;;;;;4925720;29;20063;-65
2020/12/20 13:46:51;;;;;;;8.77;7.15;;;;;;;;;;4929177;29;20055;-63
2020/12/20 13:49:17;;;;;;;;;;;;;;;;;;4929032;29;20063;-67
2020/12/20 13:51:53;;;;;;;12.82;6.85;;;;;;;;;;4943447;29;19978;-65
2020/12/20 13:54:19;;;;;;;9.38;6.78;;;;;;;;;;4946466;29;20495;-64
2020/12/20 14:30:08;;;;;;;11.88;8.95;;;;;;;;;;4912311;29;20414;-62
2020/12/20 14:32:35;;;;;;;12.77;8.48;;;;;;;;;;4913422;29;20052;-67
2020/12/20 14:35:03;;;;;;;14.40;8.73;;;;;;;;;;4913090;29;20056;-65
2020/12/20 14:37:29;;;;;;;13.23;8.43;;;;;;;;;;4912750;29;20342;-66
2020/12/20 14:39:55;;;;;;;13.90;8.75;;;;;;;;;;4897588;29;20067;-67
2020/12/20 14:42:23;;;;;;;9.90;7.57;;;;;;;;;;4912731;29;20059;-67
2020/12/20 14:44:51;;;;;;;12.75;9.23;;;;;;;;;;4912792;29;20488;-69
2020/12/20 14:47:19;;;;;;;11.38;8.30;;;;;;;;;;4912613;29;20055;-70
2020/12/20 14:49:45;;;;;;;20.42;9.82;;;;;;;;;;4912543;29;20142;-63
2020/12/20 14:52:11;;;;;;;11.93;9.45;;;;;;;;;;4913226;29;20079;-68
2020/12/20 14:54:38;;;;;;;12.88;8.95;;;;;;;;;;4913208;29;20408;-65
2020/12/20 14:57:04;;;;;;;12.35;8.52;;;;;;;;;;4912095;29;20055;-65
2020/12/20 14:59:30;;;;;;;12.82;9.02;;;;;;;;;;4912783;29;20478;-67
2020/12/20 15:01:56;;;;;;;13.60;9.13;;;;;;;;;;4912512;29;20102;-65
2020/12/20 15:04:22;;;;;;;15.27;9.55;;;;;;;;;;4912778;29;20064;-64
2020/12/20 15:06:48;;;;;;;16.45;10.93;;;;;;;;;;4912079;29;20056;-64
2020/12/20 15:09:15;;;;;;;14.65;10.45;;;;;;;;;;4911967;29;20056;-63
2020/12/20 15:11:45;;;;;;;15.93;10.88;;;;;;;;;;4911574;29;20056;-63
2020/12/20 15:14:12;;;;;;;16.65;11.80;;;;;;;;;;4911927;29;20056;-63
2020/12/20 15:16:40;;;;;;;15.95;10.48;;;;;;;;;;4913001;29;20467;-63
2020/12/20 15:19:06;;;;;;;18.08;11.45;;;;;;;;;;4894487;29;20411;-62
2020/12/20 15:21:37;;;;;;;14.77;10.95;;;;;;;;;;4911985;29;20060;-64
2020/12/20 15:24:03;;;;;;;16.83;11.63;;;;;;;;;;4912122;29;20055;-62
2020/12/20 15:26:32;;;;;;;17.27;10.80;;;;;;;;;;4905283;29;20059;-64
2020/12/20 15:28:58;;;;;;;17.67;11.90;;;;;;;;;;4904811;29;20041;-62
2020/12/20 15:31:24;;;;;;;14.95;10.60;;;;;;;;;;4891101;29;20048;-62
2020/12/20 15:33:51;;;;;;;15.75;11.20;;;;;;;;;;4905579;29;20376;-64
2020/12/20 15:36:18;;;;;;;15.45;11.18;;;;;;;;;;4899679;29;20483;-63
2020/12/20 15:38:49;;;;;;;15.65;11.05;;;;;;;;;;4897004;29;20519;-63
2020/12/20 15:41:16;;;;;;;18.90;12.65;;;;;;;;;;4902542;29;20067;-62
2020/12/20 15:43:43;;;;;;;16.75;12.40;;;;;;;;;;4901484;29;20075;-63
2020/12/20 15:46:10;;;;;;;18.40;13.32;;;;;;;;;;4902055;29;20048;-62
2020/12/20 15:48:38;;;;;;;18.90;12.80;;;;;;;;;;4901454;29;20056;-62
2020/12/20 15:51:05;;;;;;;15.85;11.75;;;;;;;;;;4901019;29;20522;-63
2020/12/20 15:53:32;;;;;;;15.93;11.10;;;;;;;;;;4899380;29;20055;-63
2020/12/20 15:56:04;;;;;;;17.75;11.07;;;;;;;;;;4899880;29;20091;-61
2020/12/20 15:58:33;;;;;;;19.75;12.60;;;;;;;;;;4897913;29;20052;-63
2020/12/20 16:00:59;;;;;;;19.90;14.38;;;;;;;;;;4887004;29;20044;-62
2020/12/20 16:03:25;;;;;;;24.05;15.18;;;;;;;;;;4885285;29;20491;-63
2020/12/20 16:05:51;;;;;;;20.98;14.32;;;;;;;;;;4898996;29;20171;-68
2020/12/20 16:08:18;;;;;;;20.63;13.90;;;;;;;;;;4899449;29;20080;-62
2020/12/20 16:10:44;;;;;;;19.73;13.52;;;;;;;;;;4900661;29;20044;-62
2020/12/20 16:13:11;;;;;;;18.73;13.40;;;;;;;;;;4898494;29;20052;-62
2020/12/20 16:15:39;;;;;;;18.75;12.40;;;;;;;;;;4896546;29;20056;-62
2020/12/20 16:18:05;;;;;;;17.63;11.30;;;;;;;;;;4898435;29;20052;-63